sensor_id;sensor_type;location;lat;lon;timestamp;pressure;altitude;pressure_sealevel;temperature;humidity
18821;BME280;9539;59.332;18.034;2022-08-21T00:00:47;100827.34;;;19.72;100.00
18821;BME280;9539;59.332;18.034;2022-08-21T00:03:14;100816.09;;;19.59;100.00
18821;BME280;9539;59.332;18.034;2022-08-21T00:05:46;100802.81;;;19.57;100.00
18821;BME280;9539;59.332;18.034;2022-08-21T00:08:15;100823.53;;;19.74;100.00
18821;BME280;9539;59.332;18.034;2022-08-21T00:10:43;100806.63;;;19.54;100.00
18821;BME280;9539;59.332;18.034;2022-08-21T00:13:10;100822.22;;;19.51;100.00
18821;BME280;9539;59.332;18.034;2022-08-21T00:15:38;100834.06;;;19.31;100.00
18821;BME280;9539;59.332;18.034;2022-08-21T00:18:09;100820.25;;;19.43;100.00
18821;BME280;9539;59.332;18.034;2022-08-21T00:20:37;100820.03;;;19.64;100.00
18821;BME280;9539;59.332;18.034;2022-08-21T00:23:04;100827.31;;;19.81;100.00
18821;BME280;9539;59.332;18.034;2022-08-21T00:25:32;100815.97;;;19.78;100.00
18821;BME280;9539;59.332;18.034;2022-08-21T00:27:59;100808.00;;;19.59;100.00
18821;BME280;9539;59.332;18.034;2022-08-21T00:30:27;100813.38;;;19.68;100.00
18821;BME280;9539;59.332;18.034;2022-08-21T00:32:55;100816.06;;;19.68;100.00
18821;BME280;9539;59.332;18.034;2022-08-21T00:35:28;100816.44;;;19.73;100.00
18821;BME280;9539;59.332;18.034;2022-08-21T00:37:55;100814.72;;;19.82;100.00
18821;BME280;9539;59.332;18.034;2022-08-21T00:40:25;100815.97;;;19.78;100.00
18821;BME280;9539;59.332;18.034;2022-08-21T00:42:52;100813.56;;;19.57;100.00
18821;BME280;9539;59.332;18.034;2022-08-21T00:45:19;100813.91;;;19.35;100.00
18821;BME280;9539;59.332;18.034;2022-08-21T00:47:45;100831.03;;;19.34;100.00
18821;BME280;9539;59.332;18.034;2022-08-21T00:50:12;100828.88;;;19.57;100.00
18821;BME280;9539;59.332;18.034;2022-08-21T00:52:41;100829.19;;;19.44;100.00
18821;BME280;9539;59.332;18.034;2022-08-21T00:55:10;100829.09;;;19.26;100.00
18821;BME280;9539;59.332;18.034;2022-08-21T00:57:40;100823.44;;;19.29;100.00
18821;BME280;9539;59.332;18.034;2022-08-21T01:00:12;100823.38;;;19.39;100.00
18821;BME280;9539;59.332;18.034;2022-08-21T01:02:40;100829.78;;;19.38;100.00
18821;BME280;9539;59.332;18.034;2022-08-21T01:05:07;100825.78;;;19.42;100.00
18821;BME280;9539;59.332;18.034;2022-08-21T01:07:34;100812.91;;;19.36;100.00
18821;BME280;9539;59.332;18.034;2022-08-21T01:10:03;100823.06;;;19.51;100.00
18821;BME280;9539;59.332;18.034;2022-08-21T01:12:30;100821.84;;;19.36;100.00
18821;BME280;9539;59.332;18.034;2022-08-21T01:14:57;100814.59;;;19.46;100.00
18821;BME280;9539;59.332;18.034;2022-08-21T01:17:26;100815.88;;;19.42;100.00
18821;BME280;9539;59.332;18.034;2022-08-21T01:19:53;100818.97;;;19.10;100.00
18821;BME280;9539;59.332;18.034;2022-08-21T01:22:24;100808.06;;;19.39;100.00
18821;BME280;9539;59.332;18.034;2022-08-21T01:24:51;100812.09;;;19.26;100.00
18821;BME280;9539;59.332;18.034;2022-08-21T01:27:21;100797.59;;;19.09;100.00
18821;BME280;9539;59.332;18.034;2022-08-21T01:29:53;100802.97;;;19.09;100.00
18821;BME280;9539;59.332;18.034;2022-08-21T01:32:22;100804.09;;;19.06;100.00
18821;BME280;9539;59.332;18.034;2022-08-21T01:34:50;100786.13;;;19.07;100.00
18821;BME280;9539;59.332;18.034;2022-08-21T01:37:17;100785.69;;;19.11;100.00
18821;BME280;9539;59.332;18.034;2022-08-21T01:39:46;100791.34;;;19.18;100.00
18821;BME280;9539;59.332;18.034;2022-08-21T01:42:14;100780.13;;;18.86;100.00
18821;BME280;9539;59.332;18.034;2022-08-21T01:44:41;100804.31;;;18.86;100.00
18821;BME280;9539;59.332;18.034;2022-08-21T01:47:11;100808.97;;;18.84;100.00
18821;BME280;9539;59.332;18.034;2022-08-21T01:49:39;100802.66;;;18.65;100.00
18821;BME280;9539;59.332;18.034;2022-08-21T01:52:06;100811.94;;;18.81;100.00
18821;BME280;9539;59.332;18.034;2022-08-21T01:54:33;100813.19;;;18.86;100.00
18821;BME280;9539;59.332;18.034;2022-08-21T01:57:02;100814.59;;;19.00;100.00
18821;BME280;9539;59.332;18.034;2022-08-21T01:59:29;100815.06;;;18.86;100.00
18821;BME280;9539;59.332;18.034;2022-08-21T02:01:56;100821.34;;;19.13;100.00
18821;BME280;9539;59.332;18.034;2022-08-21T02:04:23;100825.00;;;19.22;100.00
18821;BME280;9539;59.332;18.034;2022-08-21T02:06:50;100817.44;;;18.98;100.00
18821;BME280;9539;59.332;18.034;2022-08-21T02:09:17;100804.81;;;19.08;100.00
18821;BME280;9539;59.332;18.034;2022-08-21T02:11:44;100807.69;;;18.88;100.00
18821;BME280;9539;59.332;18.034;2022-08-21T02:14:14;100810.09;;;18.91;100.00
18821;BME280;9539;59.332;18.034;2022-08-21T02:16:42;100813.06;;;18.97;100.00
18821;BME280;9539;59.332;18.034;2022-08-21T02:19:10;100810.50;;;19.05;100.00
18821;BME280;9539;59.332;18.034;2022-08-21T02:21:37;100802.50;;;19.13;100.00
18821;BME280;9539;59.332;18.034;2022-08-21T02:24:04;100809.91;;;19.11;100.00
18821;BME280;9539;59.332;18.034;2022-08-21T02:26:32;100791.56;;;18.88;100.00
18821;BME280;9539;59.332;18.034;2022-08-21T02:28:59;100805.41;;;18.93;100.00
18821;BME280;9539;59.332;18.034;2022-08-21T02:31:27;100800.47;;;18.98;100.00
18821;BME280;9539;59.332;18.034;2022-08-21T02:33:54;100803.28;;;18.96;100.00
18821;BME280;9539;59.332;18.034;2022-08-21T02:36:21;100809.31;;;19.17;100.00
18821;BME280;9539;59.332;18.034;2022-08-21T02:38:47;100809.06;;;19.01;100.00
18821;BME280;9539;59.332;18.034;2022-08-21T02:41:18;100804.09;;;19.06;100.00
18821;BME280;9539;59.332;18.034;2022-08-21T02:43:46;100800.72;;;18.95;100.00
18821;BME280;9539;59.332;18.034;2022-08-21T02:46:15;100800.34;;;18.90;100.00
18821;BME280;9539;59.332;18.034;2022-08-21T02:48:44;100807.09;;;18.94;100.00
18821;BME280;9539;59.332;18.034;2022-08-21T02:51:14;100799.47;;;18.89;100.00
18821;BME280;9539;59.332;18.034;2022-08-21T02:53:43;100810.00;;;18.63;100.00
18821;BME280;9539;59.332;18.034;2022-08-21T02:56:12;100798.97;;;18.57;100.00
18821;BME280;9539;59.332;18.034;2022-08-21T02:58:41;100799.09;;;18.55;100.00
18821;BME280;9539;59.332;18.034;2022-08-21T03:01:09;100804.47;;;18.46;100.00
18821;BME280;9539;59.332;18.034;2022-08-21T03:03:36;100790.06;;;18.66;100.00
18821;BME280;9539;59.332;18.034;2022-08-21T03:06:06;100791.56;;;18.88;100.00
18821;BME280;9539;59.332;18.034;2022-08-21T03:08:33;100787.66;;;18.63;100.00
18821;BME280;9539;59.332;18.034;2022-08-21T03:11:00;100783.94;;;18.83;100.00
18821;BME280;9539;59.332;18.034;2022-08-21T03:13:27;100784.34;;;18.88;100.00
18821;BME280;9539;59.332;18.034;2022-08-21T03:15:55;100794.25;;;18.88;100.00
18821;BME280;9539;59.332;18.034;2022-08-21T03:18:22;100786.53;;;18.65;100.00
18821;BME280;9539;59.332;18.034;2022-08-21T03:20:49;100783.38;;;18.70;100.00
18821;BME280;9539;59.332;18.034;2022-08-21T03:23:17;100795.84;;;18.71;100.00
18821;BME280;9539;59.332;18.034;2022-08-21T03:25:44;100811.69;;;18.64;100.00
18821;BME280;9539;59.332;18.034;2022-08-21T03:28:14;100806.03;;;18.67;100.00
18821;BME280;9539;59.332;18.034;2022-08-21T03:30:42;100809.00;;;18.45;100.00
18821;BME280;9539;59.332;18.034;2022-08-21T03:33:09;100796.56;;;18.73;100.00
18821;BME280;9539;59.332;18.034;2022-08-21T03:35:36;100803.22;;;18.59;100.00
18821;BME280;9539;59.332;18.034;2022-08-21T03:38:02;100800.06;;;18.73;100.00
18821;BME280;9539;59.332;18.034;2022-08-21T03:40:31;100783.84;;;18.56;100.00
18821;BME280;9539;59.332;18.034;2022-08-21T03:42:57;100787.19;;;18.67;100.00
18821;BME280;9539;59.332;18.034;2022-08-21T03:45:25;100797.38;;;18.73;100.00
18821;BME280;9539;59.332;18.034;2022-08-21T03:47:55;100800.81;;;18.66;100.00
18821;BME280;9539;59.332;18.034;2022-08-21T03:50:23;100809.28;;;18.71;100.00
18821;BME280;9539;59.332;18.034;2022-08-21T03:52:50;100812.66;;;18.54;100.00
18821;BME280;9539;59.332;18.034;2022-08-21T03:55:17;100809.44;;;18.60;100.00
18821;BME280;9539;59.332;18.034;2022-08-21T03:57:45;100804.44;;;18.84;100.00
18821;BME280;9539;59.332;18.034;2022-08-21T04:00:14;100811.53;;;18.85;100.00
18821;BME280;9539;59.332;18.034;2022-08-21T04:02:42;100809.13;;;18.24;100.00
18821;BME280;9539;59.332;18.034;2022-08-21T04:05:10;100817.22;;;18.72;100.00
18821;BME280;9539;59.332;18.034;2022-08-21T04:07:37;100814.06;;;18.87;100.00
18821;BME280;9539;59.332;18.034;2022-08-21T04:10:05;100815.88;;;18.96;100.00
18821;BME280;9539;59.332;18.034;2022-08-21T04:12:32;100811.53;;;18.85;100.00
18821;BME280;9539;59.332;18.034;2022-08-21T04:15:00;100815.38;;;18.73;100.00
18821;BME280;9539;59.332;18.034;2022-08-21T04:17:27;100824.22;;;18.93;100.00
18821;BME280;9539;59.332;18.034;2022-08-21T04:19:54;100824.16;;;18.56;100.00
18821;BME280;9539;59.332;18.034;2022-08-21T04:22:20;100834.59;;;18.78;100.00
18821;BME280;9539;59.332;18.034;2022-08-21T04:24:47;100819.88;;;18.92;100.00
18821;BME280;9539;59.332;18.034;2022-08-21T04:27:17;100828.28;;;19.06;100.00
18821;BME280;9539;59.332;18.034;2022-08-21T04:29:44;100830.47;;;18.84;100.00
18821;BME280;9539;59.332;18.034;2022-08-21T04:32:12;100828.19;;;18.89;100.00
18821;BME280;9539;59.332;18.034;2022-08-21T04:34:38;100823.84;;;18.78;100.00
18821;BME280;9539;59.332;18.034;2022-08-21T04:37:05;100821.25;;;18.86;100.00
18821;BME280;9539;59.332;18.034;2022-08-21T04:39:32;100825.28;;;18.72;100.00
18821;BME280;9539;59.332;18.034;2022-08-21T04:41:58;100826.53;;;18.78;100.00
18821;BME280;9539;59.332;18.034;2022-08-21T04:44:25;100832.91;;;18.67;100.00
18821;BME280;9539;59.332;18.034;2022-08-21T04:46:51;100827.94;;;18.82;100.00
18821;BME280;9539;59.332;18.034;2022-08-21T04:49:20;100805.72;;;18.90;100.00
18821;BME280;9539;59.332;18.034;2022-08-21T04:51:46;100813.59;;;19.01;100.00
18821;BME280;9539;59.332;18.034;2022-08-21T04:54:17;100813.72;;;19.09;100.00
18821;BME280;9539;59.332;18.034;2022-08-21T04:56:49;100801.31;;;18.98;100.00
18821;BME280;9539;59.332;18.034;2022-08-21T04:59:31;100806.69;;;18.89;100.00
18821;BME280;9539;59.332;18.034;2022-08-21T05:01:59;100796.25;;;18.86;100.00
18821;BME280;9539;59.332;18.034;2022-08-21T05:04:30;100800.59;;;18.87;100.00
18821;BME280;9539;59.332;18.034;2022-08-21T05:07:01;100806.16;;;18.75;100.00
18821;BME280;9539;59.332;18.034;2022-08-21T05:09:28;100803.19;;;18.79;100.00
18821;BME280;9539;59.332;18.034;2022-08-21T05:11:56;100808.53;;;18.88;100.00
18821;BME280;9539;59.332;18.034;2022-08-21T05:14:23;100808.28;;;18.72;100.00
18821;BME280;9539;59.332;18.034;2022-08-21T05:16:50;100803.75;;;18.82;100.00
18821;BME280;9539;59.332;18.034;2022-08-21T05:19:17;100801.03;;;18.82;100.00
18821;BME280;9539;59.332;18.034;2022-08-21T05:21:46;100801.25;;;19.08;100.00
18821;BME280;9539;59.332;18.034;2022-08-21T05:24:14;100799.19;;;18.92;100.00
18821;BME280;9539;59.332;18.034;2022-08-21T05:26:42;100808.56;;;18.69;100.00
18821;BME280;9539;59.332;18.034;2022-08-21T05:29:08;100794.97;;;18.80;100.00
18821;BME280;9539;59.332;18.034;2022-08-21T05:31:36;100794.78;;;19.01;100.00
18821;BME280;9539;59.332;18.034;2022-08-21T05:34:04;100781.91;;;18.95;100.00
18821;BME280;9539;59.332;18.034;2022-08-21T05:36:30;100789.84;;;18.96;100.00
18821;BME280;9539;59.332;18.034;2022-08-21T05:38:59;100793.44;;;19.14;100.00
18821;BME280;9539;59.332;18.034;2022-08-21T05:41:25;100782.31;;;19.00;100.00
18821;BME280;9539;59.332;18.034;2022-08-21T05:43:52;100792.94;;;19.01;100.00
18821;BME280;9539;59.332;18.034;2022-08-21T05:46:19;100793.66;;;18.94;100.00
18821;BME280;9539;59.332;18.034;2022-08-21T05:48:45;100797.63;;;18.90;100.00
18821;BME280;9539;59.332;18.034;2022-08-21T05:51:13;100800.84;;;19.03;100.00
18821;BME280;9539;59.332;18.034;2022-08-21T05:53:41;100789.44;;;18.91;100.00
18821;BME280;9539;59.332;18.034;2022-08-21T05:56:11;100785.19;;;19.26;100.00
18821;BME280;9539;59.332;18.034;2022-08-21T05:58:41;100782.63;;;19.34;100.00
18821;BME280;9539;59.332;18.034;2022-08-21T06:01:08;100778.94;;;19.35;100.00
18821;BME280;9539;59.332;18.034;2022-08-21T06:03:40;100781.84;;;19.51;100.00
18821;BME280;9539;59.332;18.034;2022-08-21T06:06:07;100783.72;;;19.41;100.00
18821;BME280;9539;59.332;18.034;2022-08-21T06:08:34;100782.69;;;19.14;100.00
18821;BME280;9539;59.332;18.034;2022-08-21T06:11:01;100784.00;;;19.47;100.00
18821;BME280;9539;59.332;18.034;2022-08-21T06:13:29;100777.75;;;19.47;100.00
18821;BME280;9539;59.332;18.034;2022-08-21T06:16:07;100780.63;;;19.36;100.00
18821;BME280;9539;59.332;18.034;2022-08-21T06:18:35;100765.94;;;19.30;100.00
18821;BME280;9539;59.332;18.034;2022-08-21T06:21:02;100777.34;;;19.42;100.00
18821;BME280;9539;59.332;18.034;2022-08-21T06:23:29;100772.09;;;19.50;100.00
18821;BME280;9539;59.332;18.034;2022-08-21T06:25:56;100769.97;;;19.44;100.00
18821;BME280;9539;59.332;18.034;2022-08-21T06:28:23;100776.09;;;19.36;100.00
18821;BME280;9539;59.332;18.034;2022-08-21T06:30:51;100773.72;;;19.61;100.00
18821;BME280;9539;59.332;18.034;2022-08-21T06:33:17;100765.63;;;19.70;100.00
18821;BME280;9539;59.332;18.034;2022-08-21T06:35:44;100772.25;;;19.48;100.00
18821;BME280;9539;59.332;18.034;2022-08-21T06:38:11;100780.75;;;19.44;100.00
18821;BME280;9539;59.332;18.034;2022-08-21T06:40:38;100779.47;;;19.11;100.00
18821;BME280;9539;59.332;18.034;2022-08-21T06:43:06;100770.69;;;19.46;100.00
18821;BME280;9539;59.332;18.034;2022-08-21T06:45:33;100772.38;;;19.47;100.00
18821;BME280;9539;59.332;18.034;2022-08-21T06:48:02;100786.53;;;19.39;100.00
18821;BME280;9539;59.332;18.034;2022-08-21T06:50:29;100779.97;;;19.61;100.00
18821;BME280;9539;59.332;18.034;2022-08-21T06:53:01;100773.66;;;19.43;100.00
18821;BME280;9539;59.332;18.034;2022-08-21T06:55:28;100780.00;;;19.51;100.00
18821;BME280;9539;59.332;18.034;2022-08-21T06:57:55;100780.25;;;19.58;100.00
18821;BME280;9539;59.332;18.034;2022-08-21T07:00:21;100775.34;;;19.71;100.00
18821;BME280;9539;59.332;18.034;2022-08-21T07:02:48;100775.50;;;19.42;100.00
18821;BME280;9539;59.332;18.034;2022-08-21T07:05:17;100768.31;;;19.70;100.00
18821;BME280;9539;59.332;18.034;2022-08-21T07:07:44;100774.97;;;19.84;100.00
18821;BME280;9539;59.332;18.034;2022-08-21T07:10:11;100770.31;;;19.86;100.00
18821;BME280;9539;59.332;18.034;2022-08-21T07:12:37;100770.53;;;20.10;100.00
18821;BME280;9539;59.332;18.034;2022-08-21T07:15:05;100768.03;;;20.09;100.00
18821;BME280;9539;59.332;18.034;2022-08-21T07:17:32;100762.84;;;19.80;100.00
18821;BME280;9539;59.332;18.034;2022-08-21T07:19:58;100773.25;;;20.28;100.00
18821;BME280;9539;59.332;18.034;2022-08-21T07:22:27;100769.59;;;20.55;100.00
18821;BME280;9539;59.332;18.034;2022-08-21T07:24:53;100769.50;;;20.39;100.00
18821;BME280;9539;59.332;18.034;2022-08-21T07:27:20;100766.53;;;20.50;100.00
18821;BME280;9539;59.332;18.034;2022-08-21T07:29:47;100764.34;;;20.71;100.00
18821;BME280;9539;59.332;18.034;2022-08-21T07:32:14;100769.72;;;20.27;100.00
18821;BME280;9539;59.332;18.034;2022-08-21T07:34:41;100763.59;;;19.90;100.00
18821;BME280;9539;59.332;18.034;2022-08-21T07:37:08;100755.22;;;20.11;100.00
18821;BME280;9539;59.332;18.034;2022-08-21T07:39:36;100761.16;;;20.32;100.00
18821;BME280;9539;59.332;18.034;2022-08-21T07:42:03;100765.66;;;20.41;100.00
18821;BME280;9539;59.332;18.034;2022-08-21T07:44:30;100769.34;;;20.40;100.00
18821;BME280;9539;59.332;18.034;2022-08-21T07:46:57;100758.75;;;20.29;100.00
18821;BME280;9539;59.332;18.034;2022-08-21T07:49:23;100763.06;;;20.04;100.00
18821;BME280;9539;59.332;18.034;2022-08-21T07:51:50;100770.22;;;20.31;100.00
18821;BME280;9539;59.332;18.034;2022-08-21T07:54:17;100763.25;;;20.38;100.00
18821;BME280;9539;59.332;18.034;2022-08-21T07:56:45;100767.72;;;20.47;100.00
18821;BME280;9539;59.332;18.034;2022-08-21T07:59:12;100767.19;;;20.08;100.00
18821;BME280;9539;59.332;18.034;2022-08-21T08:01:38;100760.56;;;20.20;100.00
18821;BME280;9539;59.332;18.034;2022-08-21T08:04:05;100760.91;;;20.61;100.00
18821;BME280;9539;59.332;18.034;2022-08-21T08:06:32;100762.69;;;20.17;100.00
18821;BME280;9539;59.332;18.034;2022-08-21T08:08:58;100762.56;;;20.54;100.00
18821;BME280;9539;59.332;18.034;2022-08-21T08:11:28;100759.38;;;20.58;100.00
18821;BME280;9539;59.332;18.034;2022-08-21T08:13:56;100757.81;;;21.33;100.00
18821;BME280;9539;59.332;18.034;2022-08-21T08:16:24;100765.22;;;21.73;100.00
18821;BME280;9539;59.332;18.034;2022-08-21T08:18:51;100753.59;;;21.81;100.00
18821;BME280;9539;59.332;18.034;2022-08-21T08:21:20;100748.13;;;22.23;100.00
18821;BME280;9539;59.332;18.034;2022-08-21T08:23:46;100742.19;;;22.27;100.00
18821;BME280;9539;59.332;18.034;2022-08-21T08:26:14;100730.97;;;21.82;100.00
18821;BME280;9539;59.332;18.034;2022-08-21T08:28:42;100733.06;;;21.96;100.00
18821;BME280;9539;59.332;18.034;2022-08-21T08:31:10;100735.94;;;22.03;100.00
18821;BME280;9539;59.332;18.034;2022-08-21T08:33:37;100739.97;;;21.99;100.00
18821;BME280;9539;59.332;18.034;2022-08-21T08:36:04;100744.09;;;21.69;100.00
18821;BME280;9539;59.332;18.034;2022-08-21T08:38:31;100741.78;;;21.32;100.00
18821;BME280;9539;59.332;18.034;2022-08-21T08:41:01;100743.72;;;22.14;100.00
18821;BME280;9539;59.332;18.034;2022-08-21T08:43:32;100749.88;;;23.03;100.00
18821;BME280;9539;59.332;18.034;2022-08-21T08:46:04;100742.63;;;23.82;100.00
18821;BME280;9539;59.332;18.034;2022-08-21T08:48:41;100737.09;;;24.44;100.00
18821;BME280;9539;59.332;18.034;2022-08-21T08:51:15;100753.47;;;24.88;100.00
18821;BME280;9539;59.332;18.034;2022-08-21T08:53:49;100748.66;;;23.92;100.00
18821;BME280;9539;59.332;18.034;2022-08-21T08:56:22;100746.63;;;24.17;100.00
18821;BME280;9539;59.332;18.034;2022-08-21T08:58:53;100750.50;;;24.22;100.00
18821;BME280;9539;59.332;18.034;2022-08-21T09:01:22;100758.38;;;24.69;100.00
18821;BME280;9539;59.332;18.034;2022-08-21T09:03:50;100748.53;;;25.65;100.00
18821;BME280;9539;59.332;18.034;2022-08-21T09:06:36;100744.53;;;25.82;100.00
18821;BME280;9539;59.332;18.034;2022-08-21T09:09:15;100746.38;;;26.39;99.34
18821;BME280;9539;59.332;18.034;2022-08-21T09:11:50;100748.19;;;26.10;100.00
18821;BME280;9539;59.332;18.034;2022-08-21T09:14:26;100751.16;;;25.58;100.00
18821;BME280;9539;59.332;18.034;2022-08-21T09:17:04;100741.16;;;26.01;100.00
18821;BME280;9539;59.332;18.034;2022-08-21T09:19:46;100745.66;;;26.09;100.00
18821;BME280;9539;59.332;18.034;2022-08-21T09:22:22;100744.94;;;25.79;100.00
18821;BME280;9539;59.332;18.034;2022-08-21T09:24:55;100752.44;;;25.62;98.04
18821;BME280;9539;59.332;18.034;2022-08-21T09:27:28;100750.94;;;23.80;100.00
18821;BME280;9539;59.332;18.034;2022-08-21T09:29:56;100755.88;;;24.31;100.00
18821;BME280;9539;59.332;18.034;2022-08-21T09:32:25;100749.59;;;23.76;100.00
18821;BME280;9539;59.332;18.034;2022-08-21T09:35:03;100745.16;;;24.06;100.00
18821;BME280;9539;59.332;18.034;2022-08-21T09:37:32;100754.75;;;24.77;100.00
18821;BME280;9539;59.332;18.034;2022-08-21T09:40:02;100739.91;;;24.88;100.00
18821;BME280;9539;59.332;18.034;2022-08-21T09:42:30;100758.47;;;24.99;100.00
18821;BME280;9539;59.332;18.034;2022-08-21T09:45:09;100750.16;;;24.63;100.00
18821;BME280;9539;59.332;18.034;2022-08-21T09:47:35;100758.31;;;24.40;100.00
18821;BME280;9539;59.332;18.034;2022-08-21T09:50:13;100743.59;;;24.12;100.00
18821;BME280;9539;59.332;18.034;2022-08-21T09:52:46;100747.03;;;24.51;100.00
18821;BME280;9539;59.332;18.034;2022-08-21T09:55:18;100738.44;;;24.02;100.00
18821;BME280;9539;59.332;18.034;2022-08-21T09:58:02;100748.41;;;23.48;100.00
18821;BME280;9539;59.332;18.034;2022-08-21T10:00:31;100749.75;;;23.83;100.00
18821;BME280;9539;59.332;18.034;2022-08-21T10:03:12;100749.84;;;24.12;100.00
18821;BME280;9539;59.332;18.034;2022-08-21T10:05:55;100749.81;;;23.67;100.00
18821;BME280;9539;59.332;18.034;2022-08-21T10:08:25;100743.16;;;23.38;100.00
18821;BME280;9539;59.332;18.034;2022-08-21T10:10:57;100758.63;;;23.22;100.00
18821;BME280;9539;59.332;18.034;2022-08-21T10:13:37;100760.28;;;23.39;100.00
18821;BME280;9539;59.332;18.034;2022-08-21T10:16:15;100757.88;;;23.83;100.00
18821;BME280;9539;59.332;18.034;2022-08-21T10:19:02;100750.31;;;23.70;100.00
18821;BME280;9539;59.332;18.034;2022-08-21T10:21:39;100754.78;;;23.55;100.00
18821;BME280;9539;59.332;18.034;2022-08-21T10:24:13;100757.22;;;22.87;100.00
18821;BME280;9539;59.332;18.034;2022-08-21T10:26:51;100760.06;;;23.48;100.00
18821;BME280;9539;59.332;18.034;2022-08-21T10:29:37;100761.56;;;23.59;100.00
18821;BME280;9539;59.332;18.034;2022-08-21T10:32:09;100755.38;;;23.73;100.00
18821;BME280;9539;59.332;18.034;2022-08-21T10:34:51;100744.72;;;24.25;100.00
18821;BME280;9539;59.332;18.034;2022-08-21T10:37:35;100745.34;;;24.05;100.00
18821;BME280;9539;59.332;18.034;2022-08-21T10:40:11;100746.09;;;23.68;100.00
18821;BME280;9539;59.332;18.034;2022-08-21T10:42:49;100738.16;;;24.12;97.53
18821;BME280;9539;59.332;18.034;2022-08-21T10:45:32;100745.50;;;23.49;99.10
18821;BME280;9539;59.332;18.034;2022-08-21T10:48:05;100743.69;;;22.87;100.00
18821;BME280;9539;59.332;18.034;2022-08-21T10:50:39;100742.84;;;22.86;100.00
18821;BME280;9539;59.332;18.034;2022-08-21T10:53:39;100746.78;;;23.23;98.04
18821;BME280;9539;59.332;18.034;2022-08-21T10:56:14;100754.97;;;23.06;99.21
18821;BME280;9539;59.332;18.034;2022-08-21T10:58:46;100745.19;;;23.36;97.69
18821;BME280;9539;59.332;18.034;2022-08-21T11:01:20;100746.56;;;22.85;100.00
18821;BME280;9539;59.332;18.034;2022-08-21T11:03:52;100756.63;;;23.16;100.00
18821;BME280;9539;59.332;18.034;2022-08-21T11:06:22;100752.00;;;23.32;99.84
18821;BME280;9539;59.332;18.034;2022-08-21T11:08:54;100751.81;;;22.87;100.00
18821;BME280;9539;59.332;18.034;2022-08-21T11:11:25;100750.78;;;23.35;99.27
18821;BME280;9539;59.332;18.034;2022-08-21T11:13:55;100747.56;;;22.84;100.00
18821;BME280;9539;59.332;18.034;2022-08-21T11:16:29;100744.34;;;23.36;100.00
18821;BME280;9539;59.332;18.034;2022-08-21T11:19:10;100746.03;;;23.45;100.00
18821;BME280;9539;59.332;18.034;2022-08-21T11:21:43;100749.56;;;23.06;100.00
18821;BME280;9539;59.332;18.034;2022-08-21T11:24:25;100746.94;;;23.68;100.00
18821;BME280;9539;59.332;18.034;2022-08-21T11:27:01;100741.72;;;24.12;97.99
18821;BME280;9539;59.332;18.034;2022-08-21T11:29:31;100743.78;;;23.57;100.00
18821;BME280;9539;59.332;18.034;2022-08-21T11:35:20;100740.41;;;23.55;100.00
18821;BME280;9539;59.332;18.034;2022-08-21T11:38:01;100743.34;;;23.76;100.00
18821;BME280;9539;59.332;18.034;2022-08-21T11:40:45;100747.47;;;24.17;100.00
18821;BME280;9539;59.332;18.034;2022-08-21T11:43:22;100755.84;;;24.53;100.00
18821;BME280;9539;59.332;18.034;2022-08-21T11:45:53;100757.53;;;24.54;98.26
18821;BME280;9539;59.332;18.034;2022-08-21T11:48:32;100759.78;;;23.74;100.00
18821;BME280;9539;59.332;18.034;2022-08-21T11:51:05;100754.06;;;24.23;100.00
18821;BME280;9539;59.332;18.034;2022-08-21T11:53:37;100746.03;;;24.29;97.37
18821;BME280;9539;59.332;18.034;2022-08-21T11:56:11;100769.34;;;24.39;96.16
18821;BME280;9539;59.332;18.034;2022-08-21T11:58:44;100769.84;;;24.57;97.21
18821;BME280;9539;59.332;18.034;2022-08-21T12:01:17;100765.91;;;24.45;96.20
18821;BME280;9539;59.332;18.034;2022-08-21T12:03:53;100760.84;;;24.19;99.09
18821;BME280;9539;59.332;18.034;2022-08-21T12:06:29;100760.53;;;24.59;95.28
18821;BME280;9539;59.332;18.034;2022-08-21T12:08:59;100758.56;;;24.53;93.17
18821;BME280;9539;59.332;18.034;2022-08-21T12:11:27;100765.44;;;23.87;96.11
18821;BME280;9539;59.332;18.034;2022-08-21T12:13:58;100764.25;;;24.58;93.38
18821;BME280;9539;59.332;18.034;2022-08-21T12:16:32;100755.25;;;24.20;94.78
18821;BME280;9539;59.332;18.034;2022-08-21T12:19:04;100735.94;;;24.38;90.56
18821;BME280;9539;59.332;18.034;2022-08-21T12:21:31;100755.69;;;24.84;88.38
18821;BME280;9539;59.332;18.034;2022-08-21T12:24:05;100751.69;;;23.97;89.93
18821;BME280;9539;59.332;18.034;2022-08-21T12:26:51;100748.09;;;24.27;89.64
18821;BME280;9539;59.332;18.034;2022-08-21T12:29:24;100750.41;;;23.85;91.28
18821;BME280;9539;59.332;18.034;2022-08-21T12:31:58;100746.13;;;24.13;87.29
18821;BME280;9539;59.332;18.034;2022-08-21T12:34:32;100737.97;;;24.59;86.60
18821;BME280;9539;59.332;18.034;2022-08-21T12:37:04;100750.03;;;24.94;81.10
18821;BME280;9539;59.332;18.034;2022-08-21T12:39:37;100745.03;;;24.68;79.04
18821;BME280;9539;59.332;18.034;2022-08-21T12:42:16;100753.13;;;25.05;75.24
18821;BME280;9539;59.332;18.034;2022-08-21T12:44:46;100756.41;;;25.01;72.61
18821;BME280;9539;59.332;18.034;2022-08-21T12:47:24;100754.81;;;24.92;72.57
18821;BME280;9539;59.332;18.034;2022-08-21T12:50:00;100753.97;;;25.21;68.28
18821;BME280;9539;59.332;18.034;2022-08-21T12:52:30;100760.34;;;25.57;67.29
18821;BME280;9539;59.332;18.034;2022-08-21T12:54:59;100755.31;;;24.73;67.84
18821;BME280;9539;59.332;18.034;2022-08-21T12:57:28;100747.88;;;24.52;65.31